Pagina principale
METAR-TAF:

METAR-TAF

Aeroporti :

Reggio Calabria, Italia

Aeroporto di Reggio Calabria

latitudine: 38-04N, longitudine: 015-39E, altezza: 11 m

Osservazione

Il bollettino è stato emesso 48 minuti fa, alle 12:50 UTC
Vento 14 kt da nord
Temperature 27°C
Umidità 48%
Pressione 1012 hPa
Visibilità 10 km o più
Poco nuvoloso ad un'altezza di 4000 ft

METAR: LICR 191250Z 01014KT 9999 FEW040 27/15 Q1012

Ora: 15:38 (13:38 UTC)

Previsione

Il bollettino è stato emesso 2 ore e 38 minuti fa, alle 11:00 UTC
Previsione valida dal 19 alle 12 UTC al 20 alle 12 UTC
Vento 15 kt da nord
Visibilità 10 km o più
Poco nuvoloso ad un'altezza di 3000 ft

TAF: LICR 191100Z 1912/2012 35015KT 9999 FEW030

Osservazioni e previsioni meteorologiche di più di 4000 aeroporti (messaggi METAR e TAF).

Le stazioni disponibili sono rappresentate dai dischi gialli e rossi sulla carta.

Puntare il mouse per vedere il nome della stazione.

Clicca sopra per visualizzare le osservazioni e previsioni meteorologiche.

Per cambiare la mappa : fare clic sui pulsanti verdi con una croce nera per ingrandire, il pulsante verde con un trattino per diminuire, o sulla freccia verde per le mappe adiacenti.


METAR-TAF: